createdAt,value
2022-10-13T00:00:53.958Z,39.4
2022-10-13T00:01:58.731Z,39
2022-10-13T00:03:03.063Z,38.5
2022-10-13T00:04:07.531Z,38.6
2022-10-13T00:05:11.931Z,37.9
2022-10-13T00:06:16.389Z,39.6
2022-10-13T00:07:20.917Z,37
2022-10-13T00:08:25.337Z,36.8
2022-10-13T00:09:30.104Z,39.3
2022-10-13T00:10:34.828Z,35.7
2022-10-13T00:11:39.585Z,38.9
2022-10-13T00:12:44.140Z,42.3
2022-10-13T00:13:48.699Z,42.3
2022-10-13T00:24:02.331Z,36
2022-10-13T00:25:06.835Z,40.3
2022-10-13T00:26:11.392Z,37.8
2022-10-13T00:27:17.324Z,38
2022-10-13T00:28:21.723Z,37.7
2022-10-13T00:29:26.455Z,40
2022-10-13T00:30:31.581Z,39.1
2022-10-13T00:31:36.088Z,36.1
2022-10-13T00:32:40.815Z,34.9
2022-10-13T00:33:45.348Z,37.7
2022-10-13T00:34:52.211Z,35.8
2022-10-13T00:35:56.708Z,36.5
2022-10-13T00:37:01.532Z,36.6
2022-10-13T00:38:06.648Z,39.2
2022-10-13T00:40:28.267Z,35.3
2022-10-13T00:41:33.232Z,37.2
2022-10-13T00:42:37.687Z,37.4
2022-10-13T00:43:42.396Z,36.4
2022-10-13T00:44:57.032Z,37.4
2022-10-13T00:46:09.167Z,37.9
2022-10-13T00:47:13.783Z,36.9
2022-10-13T00:48:18.391Z,37.1
2022-10-13T00:49:23.051Z,36.7
2022-10-13T00:50:27.640Z,38.9
2022-10-13T00:51:35.182Z,38.3
2022-10-13T00:52:42.278Z,37.9
2022-10-13T00:53:46.943Z,38.8
2022-10-13T00:54:51.355Z,41.3
2022-10-13T00:55:56.131Z,40.2
2022-10-13T00:57:00.640Z,38.9
2022-10-13T00:58:05.644Z,39.1
2022-10-13T00:59:09.755Z,41.1
2022-10-13T01:00:14.398Z,38.3
2022-10-13T01:01:19.043Z,39.9
2022-10-13T01:02:23.844Z,39.7
2022-10-13T01:03:28.687Z,41
2022-10-13T01:04:33.167Z,44.6
2022-10-13T01:05:38.071Z,37.3
2022-10-13T01:06:42.459Z,40.8
2022-10-13T01:07:47.096Z,38.9
2022-10-13T01:08:51.684Z,41.2
2022-10-13T01:09:56.459Z,39.9
2022-10-13T01:11:00.769Z,39
2022-10-13T01:12:13.451Z,39.7
2022-10-13T01:13:28.211Z,39.8
2022-10-13T01:14:35.367Z,39.3
2022-10-13T01:15:43.320Z,39.2
2022-10-13T01:16:52.580Z,41
2022-10-13T01:17:56.724Z,42
2022-10-13T01:19:06.363Z,40.9
2022-10-13T01:20:14.392Z,40.5
2022-10-13T01:21:23.751Z,43.7
2022-10-13T01:22:36.039Z,38.6
2022-10-13T01:23:45.920Z,42.9
2022-10-13T01:24:50.209Z,39.2
2022-10-13T01:26:02.852Z,40.1
2022-10-13T01:27:15.069Z,40.9
2022-10-13T01:28:29.970Z,43
2022-10-13T01:29:44.955Z,42.9
2022-10-13T01:30:59.530Z,40.2
2022-10-13T01:32:04.211Z,44.2
2022-10-13T01:33:08.816Z,37.8
2022-10-13T01:34:23.423Z,41.4
2022-10-13T01:35:33.267Z,42.1
2022-10-13T01:36:43.051Z,39.5
2022-10-13T01:37:55.080Z,40.8
2022-10-13T01:39:07.842Z,40.7
2022-10-13T01:40:22.583Z,42.8
2022-10-13T01:41:27.404Z,40.9
2022-10-13T01:42:37.440Z,42.4
2022-10-13T01:43:47.003Z,43.8
2022-10-13T01:44:56.608Z,43
2022-10-13T01:46:01.142Z,43.9
2022-10-13T01:47:13.531Z,42.3
2022-10-13T01:48:18.176Z,40.5
2022-10-13T01:49:22.808Z,43
2022-10-13T01:50:27.239Z,39.9
2022-10-13T01:51:31.972Z,39.9
2022-10-13T01:52:36.423Z,38.8
2022-10-13T01:53:40.719Z,37.7
2022-10-13T01:54:45.157Z,40.3
2022-10-13T01:55:49.659Z,40.7
2022-10-13T01:56:57.176Z,45
2022-10-13T01:58:01.831Z,45.4
2022-10-13T01:59:06.885Z,42.8
2022-10-13T02:00:11.092Z,40.9
2022-10-13T02:01:18.843Z,40.8
2022-10-13T02:02:33.519Z,47.8
2022-10-13T02:03:40.875Z,44.5
2022-10-13T02:04:53.471Z,42.8
2022-10-13T02:05:58.096Z,43.8
2022-10-13T02:07:12.924Z,43.3
2022-10-13T02:08:27.435Z,45.5
2022-10-13T02:09:32.164Z,44.8
2022-10-13T02:10:41.868Z,45.8
2022-10-13T02:11:46.487Z,45.9
2022-10-13T02:12:56.083Z,43.2
2022-10-13T02:14:00.671Z,45.9
2022-10-13T02:15:07.837Z,43
2022-10-13T02:16:12.560Z,45.5
2022-10-13T02:17:16.975Z,45.9
2022-10-13T02:18:21.747Z,47.4
2022-10-13T02:19:26.168Z,49.7
2022-10-13T02:20:30.763Z,43.9
2022-10-13T02:21:35.523Z,43.1
2022-10-13T02:22:40.083Z,48.3
2022-10-13T02:23:44.855Z,45.9
2022-10-13T02:24:49.597Z,44.1
2022-10-13T02:25:54.280Z,46.8
2022-10-13T02:26:59.059Z,46.4
2022-10-13T02:28:03.483Z,46.8
2022-10-13T02:29:07.988Z,46.1
2022-10-13T02:30:12.932Z,45.2
2022-10-13T02:31:20.423Z,46.6
2022-10-13T02:32:24.927Z,47.6
2022-10-13T02:33:29.503Z,47.3
2022-10-13T02:34:34.303Z,48.2
2022-10-13T02:35:38.641Z,50.1
2022-10-13T02:36:43.172Z,47.6
2022-10-13T02:37:47.311Z,47.7
2022-10-13T02:38:52.011Z,47
2022-10-13T02:39:56.463Z,50.7
2022-10-13T02:41:01.175Z,45.8
2022-10-13T02:42:05.647Z,56.4
2022-10-13T02:43:10.211Z,47.7
2022-10-13T02:44:14.939Z,46
2022-10-13T02:45:19.252Z,49.2
2022-10-13T02:46:24.007Z,48.9
2022-10-13T02:47:28.651Z,46.1
2022-10-13T02:48:33.098Z,45.4
2022-10-13T02:49:37.199Z,42.9
2022-10-13T02:50:41.975Z,44.2
2022-10-13T02:51:46.428Z,43.9
2022-10-13T02:52:51.239Z,47.2
2022-10-13T02:53:55.944Z,44.5
2022-10-13T02:55:00.437Z,44.5
2022-10-13T02:56:05.355Z,48.8
2022-10-13T02:57:09.847Z,45.6
2022-10-13T02:58:14.407Z,47.4
2022-10-13T02:59:19.059Z,49.6
2022-10-13T03:00:24.023Z,45.1
2022-10-13T03:01:30.248Z,48.7
2022-10-13T03:02:34.767Z,48.2
2022-10-13T03:03:39.611Z,48.5
2022-10-13T03:04:44.035Z,48.8
2022-10-13T03:05:48.591Z,45.8
2022-10-13T03:06:53.403Z,46.1
2022-10-13T03:07:57.724Z,48.5
2022-10-13T03:09:02.184Z,48.3
2022-10-13T03:10:06.927Z,48
2022-10-13T03:11:11.683Z,49.8
2022-10-13T03:12:16.020Z,50.4
2022-10-13T03:13:20.739Z,54.8
2022-10-13T03:14:25.331Z,49.7
2022-10-13T03:15:29.966Z,54
2022-10-13T03:16:34.711Z,53.2
2022-10-13T03:17:39.367Z,54.3
2022-10-13T03:18:43.965Z,55.1
2022-10-13T03:19:48.367Z,54.3
2022-10-13T03:20:52.959Z,52
2022-10-13T03:21:57.427Z,55.3
2022-10-13T03:23:02.114Z,56.5
2022-10-13T03:24:06.701Z,53.6
2022-10-13T03:25:11.326Z,52
2022-10-13T03:26:15.923Z,51.1
2022-10-13T03:27:20.396Z,52.6
2022-10-13T03:28:25.266Z,51.9
2022-10-13T03:29:29.758Z,55.2
2022-10-13T03:30:34.095Z,52.1
2022-10-13T03:31:38.871Z,48.1
2022-10-13T03:32:43.231Z,50.7
2022-10-13T03:33:47.782Z,49.4
2022-10-13T03:34:52.490Z,53.7
2022-10-13T03:35:57.715Z,51.9
2022-10-13T03:37:02.333Z,48.3
2022-10-13T03:38:06.883Z,55.3
2022-10-13T03:39:11.407Z,52.9
2022-10-13T03:40:15.985Z,55.6
2022-10-13T03:41:20.544Z,52.7
2022-10-13T03:42:25.276Z,53.7
2022-10-13T03:43:29.815Z,53.9
2022-10-13T03:44:34.400Z,54.8
2022-10-13T03:45:39.155Z,51.4
2022-10-13T03:46:43.691Z,56.7
2022-10-13T03:47:48.228Z,51.1
2022-10-13T03:48:52.842Z,54.5
2022-10-13T03:49:57.413Z,53.2
2022-10-13T03:51:02.007Z,49.4
2022-10-13T03:52:06.619Z,52.5
2022-10-13T03:53:11.107Z,55.6
2022-10-13T03:54:15.620Z,50.4
2022-10-13T03:55:21.481Z,51.3
2022-10-13T03:56:27.078Z,45.7
2022-10-13T03:57:31.498Z,50.3
2022-10-13T03:58:36.103Z,55.3
2022-10-13T03:59:40.754Z,48.8
2022-10-13T04:00:45.430Z,47.6
2022-10-13T04:01:50.028Z,52
2022-10-13T04:02:54.219Z,51.5
2022-10-13T04:03:58.657Z,51.6
2022-10-13T04:05:03.039Z,51.5
2022-10-13T04:06:07.631Z,48.8
2022-10-13T04:07:12.206Z,51.2
2022-10-13T04:08:17.126Z,51.4
2022-10-13T04:09:21.486Z,47.3
2022-10-13T04:10:25.960Z,51.5
2022-10-13T04:11:30.782Z,49.2
2022-10-13T04:12:35.140Z,53.2
2022-10-13T04:13:39.814Z,48.5
2022-10-13T04:14:44.271Z,49.5
2022-10-13T04:15:49.026Z,48.5
2022-10-13T04:16:53.531Z,53.1
2022-10-13T04:17:58.207Z,48.2
2022-10-13T04:19:02.992Z,45.3
2022-10-13T04:20:07.674Z,51.7
2022-10-13T04:21:12.433Z,52.1
2022-10-13T04:22:17.745Z,46.6
2022-10-13T04:23:21.986Z,48.5
2022-10-13T04:24:26.457Z,47.8
2022-10-13T04:25:31.226Z,45.3
2022-10-13T04:26:38.599Z,47.8
2022-10-13T04:27:42.805Z,50.1
2022-10-13T04:28:47.456Z,47.3
2022-10-13T04:29:52.026Z,48.5
2022-10-13T04:30:56.654Z,52.4
2022-10-13T04:32:01.402Z,46.9
2022-10-13T04:33:05.883Z,52.6
2022-10-13T04:34:10.503Z,49.3
2022-10-13T04:35:14.822Z,50.5
2022-10-13T04:36:19.617Z,48.4
2022-10-13T04:37:24.248Z,50.9
2022-10-13T04:38:28.862Z,50.9
2022-10-13T04:39:33.466Z,47.5
2022-10-13T04:40:37.912Z,53.2
2022-10-13T04:41:42.490Z,46
2022-10-13T04:42:47.039Z,46.9
2022-10-13T04:43:51.770Z,46.7
2022-10-13T04:44:56.246Z,44.6
2022-10-13T04:46:00.954Z,41.9
2022-10-13T04:47:11.047Z,43.4
2022-10-13T04:48:15.868Z,41.1
2022-10-13T04:49:21.776Z,43.8
2022-10-13T04:50:26.334Z,40.7
2022-10-13T04:51:30.859Z,41.5
2022-10-13T04:52:35.394Z,41
2022-10-13T04:53:40.206Z,42.1
2022-10-13T04:54:44.751Z,44.5
2022-10-13T04:55:49.202Z,45.2
2022-10-13T04:56:54.102Z,45
2022-10-13T04:57:58.298Z,44.3
2022-10-13T04:59:03.167Z,44.2
2022-10-13T05:00:07.638Z,44.2
2022-10-13T05:01:12.439Z,42.8
2022-10-13T05:02:17.942Z,44.7
2022-10-13T05:03:25.286Z,47
2022-10-13T05:04:31.190Z,46.7
2022-10-13T05:05:35.970Z,48
2022-10-13T05:06:53.601Z,46.7
2022-10-13T05:07:45.315Z,45.6
2022-10-13T05:08:50.292Z,45.3
2022-10-13T05:09:54.738Z,45.5
2022-10-13T05:10:59.630Z,45
2022-10-13T05:12:04.334Z,46.4
2022-10-13T05:13:08.462Z,50.3
2022-10-13T05:14:12.698Z,47.5
2022-10-13T05:15:17.346Z,46.9
2022-10-13T05:16:21.695Z,51.6
2022-10-13T05:17:25.979Z,51.9
2022-10-13T05:18:30.850Z,50.6
2022-10-13T05:19:35.757Z,51.5
2022-10-13T05:20:40.346Z,49.5
2022-10-13T05:21:44.870Z,54.7
2022-10-13T05:22:49.286Z,56.4
2022-10-13T05:23:53.619Z,54.8
2022-10-13T05:24:58.210Z,57
2022-10-13T05:26:02.751Z,53.9
2022-10-13T05:27:07.588Z,52.9
2022-10-13T05:28:12.086Z,54.8
2022-10-13T05:29:16.387Z,55
2022-10-13T05:30:21.030Z,56
2022-10-13T05:31:25.646Z,55
2022-10-13T05:32:30.419Z,56.4
2022-10-13T05:33:35.123Z,57.2
2022-10-13T05:34:39.638Z,58.5
2022-10-13T05:35:43.978Z,55.1
2022-10-13T05:36:48.870Z,55.5
2022-10-13T05:37:53.471Z,59.7
2022-10-13T05:38:58.197Z,58.4
2022-10-13T05:40:02.435Z,56.5
2022-10-13T05:41:07.014Z,56.6
2022-10-13T05:42:11.510Z,56.4
2022-10-13T05:43:17.975Z,56.4
2022-10-13T05:44:22.558Z,59.6
2022-10-13T05:45:26.807Z,56.9
2022-10-13T05:46:31.490Z,57.1
2022-10-13T05:47:35.878Z,55
2022-10-13T05:48:40.221Z,53.7
2022-10-13T05:49:44.825Z,54.9
2022-10-13T05:50:49.334Z,51.9
2022-10-13T05:51:53.874Z,53.5
2022-10-13T05:52:58.466Z,56.8
2022-10-13T05:54:03.286Z,54.9
2022-10-13T05:55:11.021Z,55.2
2022-10-13T05:56:15.826Z,50.5
2022-10-13T05:57:20.554Z,53.6
2022-10-13T05:58:25.126Z,53.3
2022-10-13T05:59:29.381Z,50.3
2022-10-13T06:00:34.082Z,52.4
2022-10-13T06:01:38.287Z,51.6
2022-10-13T06:02:42.955Z,48.1
2022-10-13T06:03:50.158Z,52.1
2022-10-13T06:04:54.667Z,52.4
2022-10-13T06:05:59.130Z,52.1
2022-10-13T06:07:03.885Z,51.5
2022-10-13T06:08:08.222Z,54.5
2022-10-13T06:09:13.255Z,54
2022-10-13T06:10:18.066Z,55.2
2022-10-13T06:11:22.465Z,54.2
2022-10-13T06:12:27.018Z,55.9
2022-10-13T06:13:41.114Z,51.8
2022-10-13T06:14:48.726Z,54.6
2022-10-13T06:15:53.132Z,53.6
2022-10-13T06:16:57.607Z,53.3
2022-10-13T06:18:01.905Z,50.5
2022-10-13T06:19:09.053Z,50.9
2022-10-13T06:20:13.576Z,53.8
2022-10-13T06:21:18.282Z,49.8
2022-10-13T06:22:23.154Z,53.6
2022-10-13T06:23:26.954Z,48.9
2022-10-13T06:24:31.454Z,51
2022-10-13T06:25:35.530Z,51.7
2022-10-13T06:26:40.046Z,52.6
2022-10-13T06:27:44.615Z,49.8
2022-10-13T06:28:51.118Z,50.8
2022-10-13T06:29:53.891Z,51.7
2022-10-13T06:30:58.353Z,49.2
2022-10-13T06:32:02.730Z,47
2022-10-13T06:33:07.123Z,53
2022-10-13T06:34:11.812Z,52.8
2022-10-13T06:35:16.388Z,50.5
2022-10-13T06:36:20.879Z,52.2
2022-10-13T06:37:27.426Z,55.2
2022-10-13T06:38:29.703Z,56.2
2022-10-13T06:39:34.243Z,56.8
2022-10-13T06:40:44.688Z,56.7
2022-10-13T06:41:49.215Z,56.6
2022-10-13T06:42:53.477Z,56.7
2022-10-13T06:43:58.095Z,59.4
2022-10-13T06:45:02.917Z,52.9
2022-10-13T06:46:07.872Z,54.5
2022-10-13T06:47:12.719Z,55
2022-10-13T06:48:17.167Z,51.9
2022-10-13T06:49:22.077Z,57.3
2022-10-13T06:50:27.003Z,58
2022-10-13T06:51:31.376Z,58.7
2022-10-13T06:52:35.831Z,56.7
2022-10-13T06:53:40.239Z,56
2022-10-13T06:54:44.967Z,57.3
2022-10-13T06:55:52.424Z,56.6
2022-10-13T06:57:01.648Z,55.1
2022-10-13T06:58:06.103Z,51.9
2022-10-13T06:59:10.432Z,51.2
2022-10-13T07:00:14.946Z,52.6
2022-10-13T07:01:19.283Z,52.2
2022-10-13T07:02:23.880Z,51.9
2022-10-13T07:03:28.508Z,54.3
2022-10-13T07:04:33.260Z,54.6
2022-10-13T07:05:37.654Z,53
2022-10-13T07:06:42.196Z,57
2022-10-13T07:07:46.632Z,53.2
2022-10-13T07:08:54.216Z,52.7
2022-10-13T07:09:58.640Z,49
2022-10-13T07:11:03.194Z,50.2
2022-10-13T07:12:10.448Z,47.2
2022-10-13T07:13:14.946Z,47
2022-10-13T07:14:19.515Z,43.7
2022-10-13T07:15:24.439Z,46.6
2022-10-13T07:16:29.357Z,45.9
2022-10-13T07:17:33.679Z,46.2
2022-10-13T07:18:38.123Z,46.7
2022-10-13T07:19:42.518Z,44.9
2022-10-13T07:20:47.336Z,47.9
2022-10-13T07:21:51.962Z,45.7
2022-10-13T07:22:56.269Z,48.7
2022-10-13T07:24:01.120Z,47.3
2022-10-13T07:25:05.909Z,46.6
2022-10-13T07:26:10.529Z,48.9
2022-10-13T07:27:15.077Z,45.8
2022-10-13T07:28:19.767Z,44.9
2022-10-13T07:29:24.491Z,45.6
2022-10-13T07:30:29.388Z,46.8
2022-10-13T07:31:34.024Z,47.5
2022-10-13T07:32:38.628Z,50
2022-10-13T07:33:43.041Z,47.4
2022-10-13T07:34:47.275Z,46.6
2022-10-13T07:35:54.231Z,49
2022-10-13T07:36:59.082Z,46.8
2022-10-13T07:38:03.719Z,47.6
2022-10-13T07:39:08.222Z,48.5
2022-10-13T07:40:12.642Z,50.5
2022-10-13T07:41:17.623Z,49
2022-10-13T07:42:22.559Z,51.6
2022-10-13T07:43:26.994Z,51.2
2022-10-13T07:44:31.889Z,50.2
2022-10-13T07:45:37.078Z,50.7
2022-10-13T07:46:41.850Z,51.9
2022-10-13T07:47:46.390Z,51.4
2022-10-13T07:48:51.003Z,49.3
2022-10-13T07:49:55.589Z,53.4
2022-10-13T07:51:00.193Z,51.7
2022-10-13T07:52:04.602Z,55.2
2022-10-13T07:53:09.352Z,57.2
2022-10-13T07:54:14.093Z,57.1
2022-10-13T07:55:18.465Z,56.8
2022-10-13T07:56:22.969Z,52.9
2022-10-13T07:57:27.505Z,52.8
2022-10-13T07:58:32.150Z,56.1
2022-10-13T07:59:39.498Z,57.8
2022-10-13T08:00:44.288Z,57.2
2022-10-13T08:01:48.531Z,56.8
2022-10-13T08:02:53.057Z,57.5
2022-10-13T08:03:57.745Z,57.7
2022-10-13T08:05:02.229Z,56.7
2022-10-13T08:06:06.827Z,54.8
2022-10-13T08:07:12.141Z,56
2022-10-13T08:08:17.929Z,58.9
2022-10-13T08:09:22.641Z,56.9
2022-10-13T08:10:27.337Z,55.4
2022-10-13T08:11:31.742Z,58.1
2022-10-13T08:12:36.494Z,58.6
2022-10-13T08:13:41.250Z,53.6
2022-10-13T08:15:52.924Z,56.3
2022-10-13T08:16:57.849Z,52.8
2022-10-13T08:18:02.601Z,55.5
2022-10-13T08:19:07.265Z,53.9
2022-10-13T08:20:14.853Z,56.7
2022-10-13T08:22:28.028Z,53.1
2022-10-13T08:23:28.466Z,53
2022-10-13T08:24:32.846Z,50.6
2022-10-13T08:25:37.086Z,48.2
2022-10-13T08:26:41.310Z,51.4
2022-10-13T08:27:50.868Z,45.9
2022-10-13T08:29:03.359Z,46.8
2022-10-13T08:29:54.809Z,45.2
2022-10-13T08:30:59.535Z,46.5
2022-10-13T08:32:03.725Z,45.6
2022-10-13T08:33:08.369Z,41.3
2022-10-13T08:34:12.878Z,42.9
2022-10-13T08:35:17.428Z,44.6
2022-10-13T08:36:22.386Z,40.5
2022-10-13T08:37:26.937Z,43.2
2022-10-13T08:38:32.457Z,40.7
2022-10-13T08:39:36.786Z,41.2
2022-10-13T08:40:41.565Z,41.6
2022-10-13T08:41:46.604Z,37.3
2022-10-13T08:42:51.350Z,37.2
2022-10-13T08:44:33.916Z,35.4
2022-10-13T08:45:28.705Z,36.7
2022-10-13T08:46:07.986Z,36.8
2022-10-13T08:47:12.706Z,38.6
2022-10-13T08:48:28.045Z,36.2
2022-10-13T08:49:32.643Z,37.1
2022-10-13T08:50:37.109Z,38.7
2022-10-13T08:51:41.736Z,39.2
2022-10-13T08:52:46.579Z,38
2022-10-13T08:53:54.099Z,37.7
2022-10-13T08:54:58.567Z,36.8
2022-10-13T08:56:03.303Z,35.5
2022-10-13T08:57:13.435Z,35.4
2022-10-13T08:58:18.030Z,33.7
2022-10-13T08:59:25.467Z,34.9
2022-10-13T09:00:30.151Z,34.8
2022-10-13T09:01:34.836Z,34.1
2022-10-13T09:02:39.583Z,32.8
2022-10-13T09:03:43.916Z,33.4
2022-10-13T09:04:51.575Z,33.2
2022-10-13T09:05:56.309Z,32.8
2022-10-13T09:07:08.985Z,34.8
2022-10-13T09:08:16.583Z,38.3
2022-10-13T09:09:21.139Z,33.9
2022-10-13T09:10:25.597Z,35.4
2022-10-13T09:11:30.574Z,32.4
2022-10-13T09:12:34.875Z,29.6
2022-10-13T09:13:39.810Z,42.5
2022-10-13T09:14:44.227Z,40.9
2022-10-13T09:15:56.842Z,36.3
2022-10-13T09:17:01.591Z,39.9
2022-10-13T09:18:14.011Z,40
2022-10-13T09:19:18.334Z,32.9
2022-10-13T09:20:27.926Z,36.8
2022-10-13T09:21:32.419Z,33.9
2022-10-13T09:22:36.950Z,30.7
2022-10-13T09:23:41.964Z,29.3
2022-10-13T09:24:45.883Z,32.3
2022-10-13T09:26:00.523Z,35.7
2022-10-13T09:27:08.012Z,28.6
2022-10-13T09:28:12.283Z,29.1
2022-10-13T09:29:21.919Z,29.3
2022-10-13T09:30:26.490Z,30.1
2022-10-13T09:31:41.542Z,31.6
2022-10-13T09:32:45.971Z,36.9
2022-10-13T09:33:50.634Z,31.2
2022-10-13T09:35:00.164Z,31
2022-10-13T09:36:04.803Z,30.7
2022-10-13T09:37:09.711Z,33.3
2022-10-13T09:38:17.193Z,35.5
2022-10-13T09:39:21.386Z,32.3
2022-10-13T09:40:25.562Z,34.5
2022-10-13T09:41:32.639Z,33.5
2022-10-13T09:42:37.415Z,35.6
2022-10-13T09:43:42.051Z,35.2
2022-10-13T09:44:46.569Z,33.7
2022-10-13T09:45:58.811Z,37.8
2022-10-13T09:47:03.306Z,37.1
2022-10-13T09:48:07.987Z,37.9
2022-10-13T09:49:15.378Z,36.4
2022-10-13T09:50:30.058Z,35.6
2022-10-13T09:51:34.278Z,33.1
2022-10-13T09:52:41.514Z,34.5
2022-10-13T09:53:46.558Z,34.9
2022-10-13T09:54:51.248Z,36.6
2022-10-13T09:55:59.167Z,36.2
2022-10-13T09:57:08.411Z,34.1
2022-10-13T09:58:17.749Z,40.9
2022-10-13T09:59:27.785Z,34
2022-10-13T10:00:34.690Z,33.4
2022-10-13T10:01:38.806Z,32.9
2022-10-13T10:02:43.162Z,33.1
2022-10-13T10:03:52.390Z,30.5
2022-10-13T10:04:56.442Z,32.1
2022-10-13T10:06:01.019Z,30.7
2022-10-13T10:07:08.223Z,33.5
2022-10-13T10:08:22.610Z,30
2022-10-13T10:09:30.747Z,33.4
2022-10-13T10:10:35.616Z,34.4
2022-10-13T10:11:40.134Z,33.5
2022-10-13T10:12:44.395Z,26.2
2022-10-13T10:13:49.391Z,29.6
2022-10-13T10:14:53.698Z,33.8
2022-10-13T10:15:58.251Z,30.4
2022-10-13T10:17:05.774Z,31.2
2022-10-13T10:18:17.889Z,32.3
2022-10-13T10:19:30.240Z,31.6
2022-10-13T10:20:39.738Z,32.1
2022-10-13T10:21:48.958Z,28.7
2022-10-13T10:22:58.714Z,34.3
2022-10-13T10:24:08.330Z,27.3
2022-10-13T10:25:23.165Z,28.2
2022-10-13T10:26:33.189Z,26.2
2022-10-13T10:27:44.039Z,30.2
2022-10-13T10:28:58.318Z,31.1
2022-10-13T10:30:13.077Z,35.3
2022-10-13T10:31:17.554Z,29.6
2022-10-13T10:32:32.387Z,28.4
2022-10-13T10:33:47.154Z,31.4
2022-10-13T10:34:59.446Z,31.7
2022-10-13T10:36:11.707Z,31
2022-10-13T10:37:18.802Z,30.1
2022-10-13T10:38:25.898Z,30.3
2022-10-13T10:39:32.979Z,31.4
2022-10-13T10:40:42.090Z,28.4
2022-10-13T10:41:54.611Z,34.2
2022-10-13T10:43:04.231Z,29.8
2022-10-13T10:44:13.726Z,31.6
2022-10-13T10:45:20.843Z,27
2022-10-13T10:46:28.158Z,30.5
2022-10-13T10:47:32.646Z,28.8
2022-10-13T10:48:37.443Z,31.1
2022-10-13T10:49:42.078Z,25.3
2022-10-13T10:50:46.564Z,29
2022-10-13T10:51:51.681Z,29.8
2022-10-13T10:52:56.420Z,25
2022-10-13T10:54:07.172Z,26
2022-10-13T10:55:17.040Z,30.8
2022-10-13T10:56:21.858Z,25.5
2022-10-13T10:57:31.220Z,23.6
2022-10-13T10:58:35.780Z,24.8
2022-10-13T10:59:50.560Z,27.2
2022-10-13T11:00:57.856Z,24.6
2022-10-13T11:02:12.577Z,26
2022-10-13T11:03:20.372Z,24.9
2022-10-13T11:04:34.948Z,22.5
2022-10-13T11:05:44.249Z,26.1
2022-10-13T11:06:58.996Z,23.5
2022-10-13T11:08:03.585Z,26.7
2022-10-13T11:09:08.509Z,23.8
2022-10-13T11:10:12.947Z,22.3
2022-10-13T11:11:17.436Z,22.3
2022-10-13T11:12:24.871Z,24.9
2022-10-13T11:13:39.448Z,26.2
2022-10-13T11:14:54.470Z,24.6
2022-10-13T11:16:02.004Z,34
2022-10-13T11:17:16.404Z,25.1
2022-10-13T11:18:26.133Z,25.1
2022-10-13T11:19:41.464Z,26.1
2022-10-13T11:20:46.236Z,28.2
2022-10-13T11:21:50.685Z,26
2022-10-13T11:22:55.348Z,24.8
2022-10-13T11:24:02.133Z,23.2
2022-10-13T11:25:04.856Z,22.9
2022-10-13T11:26:19.789Z,25.5
2022-10-13T11:27:29.262Z,24
2022-10-13T11:28:33.998Z,22.9
2022-10-13T11:29:42.625Z,26.1
2022-10-13T11:30:52.724Z,24.3
2022-10-13T11:31:57.325Z,25.1
2022-10-13T11:33:02.363Z,24.7
2022-10-13T11:34:17.524Z,25.3
2022-10-13T11:35:26.944Z,25.9
2022-10-13T11:36:31.424Z,26.7
2022-10-13T11:37:36.137Z,25.8
2022-10-13T11:38:51.200Z,25.4
2022-10-13T11:40:00.826Z,27.2
2022-10-13T11:41:05.332Z,26.2
2022-10-13T11:42:12.844Z,25.6
2022-10-13T11:43:25.202Z,27.5
2022-10-13T11:44:40.095Z,27.5
2022-10-13T11:45:50.234Z,22.7
2022-10-13T11:46:54.744Z,28.4
2022-10-13T11:49:21.884Z,25.3
2022-10-13T11:50:31.672Z,23
2022-10-13T11:51:41.366Z,27.9
2022-10-13T11:52:48.648Z,23
2022-10-13T11:54:04.484Z,25.5
2022-10-13T11:55:14.248Z,23.3
2022-10-13T11:56:18.996Z,23.1
2022-10-13T11:57:23.408Z,22.3
2022-10-13T11:58:27.951Z,27.4
2022-10-13T11:59:32.737Z,24.4
2022-10-13T12:00:39.900Z,25
2022-10-13T12:01:49.364Z,22.9
2022-10-13T12:02:58.958Z,24.3
2022-10-13T12:04:03.612Z,23.3
2022-10-13T12:05:14.808Z,23
2022-10-13T12:06:22.308Z,23
2022-10-13T12:07:32.081Z,24
2022-10-13T12:08:37.109Z,28
2022-10-13T12:09:41.860Z,21.8
2022-10-13T12:10:49.040Z,23.3
2022-10-13T12:11:54.117Z,21.9
2022-10-13T12:12:58.640Z,23.9
2022-10-13T12:14:03.294Z,23.7
2022-10-13T12:15:07.722Z,25
2022-10-13T12:16:22.504Z,28.1
2022-10-13T12:17:27.375Z,25.2
2022-10-13T12:18:31.505Z,61.8
2022-10-13T12:19:36.208Z,25.1
2022-10-13T12:20:41.188Z,24.1
2022-10-13T12:21:45.708Z,26.2
2022-10-13T12:22:50.276Z,24.4
2022-10-13T12:23:54.956Z,26.7
2022-10-13T12:25:07.661Z,24.3
2022-10-13T12:26:17.244Z,23.7
2022-10-13T12:27:24.436Z,24.1
2022-10-13T12:28:29.339Z,26.4
2022-10-13T12:29:44.947Z,24.5
2022-10-13T12:30:49.345Z,24.3
2022-10-13T12:31:54.064Z,24.6
2022-10-13T12:32:58.608Z,22.4
2022-10-13T12:34:03.252Z,24
2022-10-13T12:35:18.009Z,25.1
2022-10-13T12:36:30.005Z,23.4
2022-10-13T12:37:32.376Z,27.8
2022-10-13T12:38:37.048Z,25.2
2022-10-13T12:39:41.648Z,25.1
2022-10-13T12:40:46.019Z,24.5
2022-10-13T12:41:50.649Z,25.9
2022-10-13T12:42:55.189Z,26.7
2022-10-13T12:44:02.386Z,25.2
2022-10-13T12:45:04.561Z,26.3
2022-10-13T12:46:09.068Z,25
2022-10-13T12:47:13.941Z,26.2
2022-10-13T12:48:28.714Z,24.2
2022-10-13T12:49:33.100Z,24.8
2022-10-13T12:50:37.324Z,27.3
2022-10-13T12:51:41.845Z,36.6
2022-10-13T12:52:49.376Z,28.2
2022-10-13T12:53:53.977Z,28.8
2022-10-13T12:54:58.804Z,25.7
2022-10-13T12:56:03.208Z,27.2
2022-10-13T12:57:07.880Z,28.9
2022-10-13T12:58:17.404Z,27.6
2022-10-13T12:59:22.188Z,26.6
2022-10-13T13:00:27.000Z,27.6
2022-10-13T13:01:31.751Z,34.1
2022-10-13T13:02:35.922Z,29.5
2022-10-13T13:03:40.537Z,32.4
2022-10-13T13:04:45.492Z,31.8
2022-10-13T13:05:52.849Z,30.5
2022-10-13T13:06:54.536Z,27.4
2022-10-13T13:07:59.199Z,26.8
2022-10-13T13:09:03.824Z,29.7
2022-10-13T13:10:18.514Z,28.4
2022-10-13T13:11:23.368Z,26.9
2022-10-13T13:12:37.871Z,29.4
2022-10-13T13:13:42.229Z,27.1
2022-10-13T13:14:46.952Z,27.5
2022-10-13T13:15:51.521Z,29.8
2022-10-13T13:16:59.677Z,29.7
2022-10-13T13:18:08.336Z,31.8
2022-10-13T13:19:23.344Z,27.5
2022-10-13T13:20:28.143Z,28.1
2022-10-13T13:21:32.573Z,27.5
2022-10-13T13:23:41.596Z,38.3
2022-10-13T13:24:45.924Z,28.3
2022-10-13T13:25:50.180Z,31
2022-10-13T13:27:02.548Z,28.8
2022-10-13T13:28:15.243Z,32.5
2022-10-13T13:29:19.821Z,29.9
2022-10-13T13:30:24.626Z,26.7
2022-10-13T13:31:29.145Z,30
2022-10-13T13:32:33.595Z,26.9
2022-10-13T13:33:38.200Z,26.3
2022-10-13T13:34:42.719Z,24.1
2022-10-13T13:35:46.983Z,27.8
2022-10-13T13:36:51.250Z,30.7
2022-10-13T13:37:55.922Z,28
2022-10-13T13:39:00.488Z,29.2
2022-10-13T13:40:04.942Z,30.6
2022-10-13T13:41:09.127Z,27.8
2022-10-13T13:42:13.828Z,27.5
2022-10-13T13:43:18.411Z,27.8
2022-10-13T13:44:22.984Z,28
2022-10-13T13:45:27.531Z,27.6
2022-10-13T13:46:32.138Z,25.2
2022-10-13T13:47:39.927Z,24.8
2022-10-13T13:48:44.847Z,26.1
2022-10-13T13:49:49.407Z,25.9
2022-10-13T13:50:56.623Z,28.3
2022-10-13T13:52:01.159Z,25.2
2022-10-13T13:53:05.759Z,27.8
2022-10-13T13:54:10.320Z,26.5
2022-10-13T13:55:14.835Z,25.7
2022-10-13T13:56:19.735Z,25.4
2022-10-13T13:57:24.255Z,33.4
2022-10-13T13:58:28.858Z,33.8
2022-10-13T13:59:33.339Z,24.9
2022-10-13T14:00:37.423Z,24.5
2022-10-13T14:01:41.977Z,24.5
2022-10-13T14:02:46.442Z,24.2
2022-10-13T14:03:50.655Z,27.5
2022-10-13T14:04:55.318Z,25.4
2022-10-13T14:05:59.951Z,25.4
2022-10-13T14:07:04.490Z,27.9
2022-10-13T14:08:09.115Z,24.1
2022-10-13T14:09:13.670Z,26
2022-10-13T14:10:18.232Z,25.4
2022-10-13T14:11:22.507Z,28.3
2022-10-13T14:12:27.047Z,27.4
2022-10-13T14:13:31.355Z,27.9
2022-10-13T14:14:35.895Z,24.7
2022-10-13T14:15:40.380Z,27.3
2022-10-13T14:16:44.751Z,25.6
2022-10-13T14:17:49.471Z,25.5
2022-10-13T14:18:53.872Z,25
2022-10-13T14:19:58.152Z,27.9
2022-10-13T14:21:02.651Z,27.3
2022-10-13T14:22:09.511Z,24.7
2022-10-13T14:23:11.768Z,25.8
2022-10-13T14:24:16.043Z,23.5
2022-10-13T14:25:20.486Z,24.8
2022-10-13T14:26:25.295Z,24.2
2022-10-13T14:27:29.740Z,24.6
2022-10-13T14:28:34.006Z,27.1
2022-10-13T14:29:38.592Z,30.2
2022-10-13T14:30:43.227Z,28.7
2022-10-13T14:31:47.703Z,28.2
2022-10-13T14:32:52.436Z,24.2
2022-10-13T14:33:56.825Z,26.9
2022-10-13T14:35:01.374Z,27.6
2022-10-13T14:36:05.956Z,30.2
2022-10-13T14:37:10.203Z,24.6
2022-10-13T14:38:14.725Z,26.1
2022-10-13T14:39:19.623Z,28.2
2022-10-13T14:40:23.903Z,30.6
2022-10-13T14:41:28.135Z,27.3
2022-10-13T14:42:32.578Z,26.8
2022-10-13T14:43:36.791Z,28.6
2022-10-13T14:44:41.479Z,29.8
2022-10-13T14:45:45.783Z,27.7
2022-10-13T14:46:50.462Z,26.7
2022-10-13T14:47:55.173Z,29.6
2022-10-13T14:48:59.699Z,27.8
2022-10-13T14:50:04.213Z,26.1
2022-10-13T14:51:08.852Z,26.4
2022-10-13T14:52:13.407Z,25.7
2022-10-13T14:53:17.655Z,30.7
2022-10-13T14:54:22.245Z,26.3
2022-10-13T14:55:26.764Z,29.4
2022-10-13T14:56:30.911Z,31.2
2022-10-13T14:57:35.528Z,28.6